Time;durP1;ratioP1;P1;durP2;ratioP2;P2;SDS_P1;SDS_P2;PMS_P1;PMS_P2;Temp;Humidity;BMP_temperature;BMP_pressure;BME280_temperature;BME280_humidity;BME280_pressure;Samples;Min_cycle;Max_cycle;Signal;HPM_P1;HPM_P2
2022/07/04 00:00:57;;;;;;;14.45;4.00;;;29.10;68.80;;;;;;5072828;28;20028;-73
2022/07/04 00:03:23;;;;;;;9.75;3.45;;;29.00;68.60;;;;;;5072964;28;20497;-73
2022/07/04 00:05:50;;;;;;;10.95;4.07;;;29.00;68.50;;;;;;5073307;28;20028;-74
2022/07/04 00:08:15;;;;;;;12.93;4.57;;;29.00;68.40;;;;;;5073017;28;20420;-74
2022/07/04 00:10:41;;;;;;;10.70;4.88;;;29.00;68.60;;;;;;5072543;28;20032;-73
2022/07/04 00:13:08;;;;;;;10.00;4.57;;;29.00;69.10;;;;;;5072962;28;20051;-73
2022/07/04 00:15:34;;;;;;;9.32;4.32;;;28.90;69.60;;;;;;5072581;28;20039;-74
2022/07/04 00:18:00;;;;;;;9.70;4.28;;;28.90;69.80;;;;;;5072692;28;20024;-75
2022/07/04 00:20:26;;;;;;;10.18;4.95;;;28.90;69.80;;;;;;5072716;28;20037;-73
2022/07/04 00:22:53;;;;;;;12.63;4.80;;;28.80;70.00;;;;;;5071586;28;20020;-76
2022/07/04 00:25:19;;;;;;;10.63;4.43;;;28.80;70.30;;;;;;5073144;28;20033;-76
2022/07/04 00:27:44;;;;;;;10.07;4.22;;;28.80;70.00;;;;;;5072669;28;20120;-76
2022/07/04 00:30:10;;;;;;;10.75;4.18;;;28.80;70.40;;;;;;5072972;28;20031;-75
2022/07/04 00:32:36;;;;;;;10.38;4.28;;;28.70;71.00;;;;;;5072997;28;20070;-77
2022/07/04 00:35:03;;;;;;;11.48;4.22;;;28.80;71.20;;;;;;5072845;28;20033;-76
2022/07/04 00:37:29;;;;;;;11.25;4.97;;;28.70;71.30;;;;;;5072490;28;20491;-75
2022/07/04 00:39:55;;;;;;;13.02;4.15;;;28.70;71.60;;;;;;5072951;28;20115;-77
2022/07/04 00:42:21;;;;;;;11.80;4.45;;;28.70;71.80;;;;;;5072796;28;20020;-74
2022/07/04 00:44:46;;;;;;;11.70;5.03;;;28.70;71.70;;;;;;5072817;28;20032;-77
2022/07/04 00:47:12;;;;;;;11.82;4.32;;;28.70;72.00;;;;;;5071259;28;20031;-75
2022/07/04 00:49:39;;;;;;;10.10;4.45;;;28.70;72.20;;;;;;5072451;28;20097;-75
2022/07/04 00:52:06;;;;;;;10.20;4.25;;;28.70;72.20;;;;;;5072441;28;20087;-76
2022/07/04 00:54:32;;;;;;;9.63;4.35;;;28.70;72.20;;;;;;5072816;28;20078;-76
2022/07/04 00:56:59;;;;;;;9.27;4.10;;;28.70;72.20;;;;;;5072539;28;20099;-75
2022/07/04 00:59:25;;;;;;;12.60;4.57;;;28.60;72.20;;;;;;5072600;28;20029;-76
2022/07/04 01:01:51;;;;;;;10.27;4.93;;;28.60;72.40;;;;;;5072579;28;20078;-77
2022/07/04 01:04:17;;;;;;;8.75;4.22;;;28.60;72.40;;;;;;5054618;28;20032;-74
2022/07/04 01:06:47;;;;;;;13.35;4.50;;;28.60;72.30;;;;;;5072576;28;20544;-75
2022/07/04 01:09:13;;;;;;;14.45;5.43;;;28.60;72.50;;;;;;5072333;28;20099;-75
2022/07/04 01:11:39;;;;;;;12.57;4.78;;;28.60;72.40;;;;;;5072302;28;20105;-77
2022/07/04 01:14:07;;;;;;;11.20;4.38;;;28.60;72.40;;;;;;5072452;28;20414;-75
2022/07/04 01:16:34;;;;;;;13.13;4.97;;;28.60;72.40;;;;;;5072468;28;20071;-76
2022/07/04 01:19:00;;;;;;;11.00;4.50;;;28.70;72.50;;;;;;5072301;28;20108;-75
2022/07/04 01:21:26;;;;;;;12.13;4.85;;;28.70;71.90;;;;;;5072014;28;20095;-76
2022/07/04 01:23:52;;;;;;;10.07;4.68;;;28.80;72.10;;;;;;5076227;28;20312;-77
2022/07/04 01:26:18;;;;;;;11.57;4.15;;;28.80;71.90;;;;;;5076267;28;20139;-74
2022/07/04 01:28:45;;;;;;;10.38;4.18;;;28.80;72.10;;;;;;5076305;28;20024;-77
2022/07/04 01:31:11;;;;;;;11.55;4.65;;;28.80;71.60;;;;;;5076103;28;20051;-76
2022/07/04 01:33:37;;;;;;;11.90;4.93;;;28.80;71.10;;;;;;5075995;28;20082;-75
2022/07/04 01:36:03;;;;;;;7.78;4.30;;;28.80;70.60;;;;;;5076055;28;20025;-78
2022/07/04 01:38:28;;;;;;;10.00;4.90;;;28.80;70.90;;;;;;5076067;28;20056;-73
2022/07/04 01:40:54;;;;;;;12.20;5.13;;;28.80;70.70;;;;;;5077433;28;20032;-74
2022/07/04 01:43:20;;;;;;;10.48;5.20;;;28.80;70.30;;;;;;5076951;28;20032;-77
2022/07/04 01:45:46;;;;;;;9.98;5.03;;;28.80;70.20;;;;;;5057880;28;20143;-76
2022/07/04 01:48:13;;;;;;;15.95;5.43;;;28.80;70.50;;;;;;5076114;28;20051;-72
2022/07/04 01:50:39;;;;;;;8.57;4.65;;;28.70;69.90;;;;;;5075841;28;20045;-75
2022/07/04 01:53:05;;;;;;;9.07;5.28;;;28.80;69.70;;;;;;5075664;28;20129;-76
2022/07/04 01:55:31;;;;;;;11.05;5.18;;;28.80;69.10;;;;;;5074466;28;20104;-75
2022/07/04 01:57:57;;;;;;;11.55;5.85;;;28.80;68.50;;;;;;5075593;28;20025;-77
2022/07/04 02:03:08;;;;;;;14.82;6.80;;;28.80;66.70;;;;;;5075483;28;20043;-73
2022/07/04 02:05:34;;;;;;;14.00;6.18;;;28.80;66.10;;;;;;5075660;28;20020;-73
2022/07/04 02:08:00;;;;;;;14.68;6.07;;;28.80;65.40;;;;;;5075520;28;20042;-73
2022/07/04 02:10:25;;;;;;;21.17;6.60;;;28.70;64.90;;;;;;5073799;28;20434;-74
2022/07/04 02:13:04;;;;;;;14.95;6.53;;;28.70;64.80;;;;;;5075236;28;20024;-74
2022/07/04 02:15:35;;;;;;;15.40;6.68;;;28.70;64.30;;;;;;5075236;28;20090;-73
2022/07/04 02:18:03;;;;;;;14.45;6.07;;;28.60;63.80;;;;;;5075751;28;20020;-74
2022/07/04 02:20:30;;;;;;;16.83;6.32;;;28.60;64.10;;;;;;5075182;28;20032;-75
2022/07/04 02:22:57;;;;;;;15.43;6.40;;;28.50;64.20;;;;;;5075641;28;20029;-73
2022/07/04 02:25:23;;;;;;;12.75;6.20;;;28.50;64.30;;;;;;5074048;28;20025;-74
2022/07/04 02:27:49;;;;;;;12.85;5.88;;;28.60;64.20;;;;;;5073601;28;20496;-74
2022/07/04 02:30:15;;;;;;;15.23;6.05;;;28.60;64.50;;;;;;5075134;28;20024;-74
2022/07/04 02:32:42;;;;;;;13.50;6.63;;;28.50;64.50;;;;;;5075354;28;20507;-73
2022/07/04 02:35:10;;;;;;;13.68;6.50;;;28.50;64.20;;;;;;5057838;28;20029;-74
2022/07/04 02:37:37;;;;;;;17.70;6.78;;;28.50;64.30;;;;;;5075467;28;20029;-74
2022/07/04 02:40:04;;;;;;;14.60;6.20;;;28.50;64.00;;;;;;5075184;28;20048;-73
2022/07/04 02:42:31;;;;;;;11.88;5.93;;;28.50;63.80;;;;;;5074790;28;20107;-73
2022/07/04 02:44:57;;;;;;;12.85;6.50;;;28.40;63.90;;;;;;5074709;28;20035;-74
2022/07/04 02:47:23;;;;;;;17.67;6.55;;;28.40;63.90;;;;;;5074768;28;20025;-74
2022/07/04 02:49:48;;;;;;;14.93;6.30;;;28.40;63.80;;;;;;5075003;28;20469;-73
2022/07/04 02:52:15;;;;;;;13.25;6.30;;;28.40;63.80;;;;;;5075864;28;20063;-73
2022/07/04 02:54:41;;;;;;;15.55;6.25;;;28.40;64.00;;;;;;5074951;28;20079;-75
2022/07/04 02:57:08;;;;;;;13.45;6.50;;;28.30;64.20;;;;;;5074831;28;20421;-72
2022/07/04 02:59:34;;;;;;;11.57;5.72;;;28.30;64.50;;;;;;5074588;28;20506;-75
2022/07/04 03:02:00;;;;;;;12.60;5.93;;;28.40;64.70;;;;;;5074576;28;20103;-75
2022/07/04 03:04:26;;;;;;;10.23;5.45;;;28.40;64.80;;;;;;5074564;28;20025;-77
2022/07/04 03:06:52;;;;;;;13.20;6.03;;;28.40;65.10;;;;;;5074576;28;20047;-74
2022/07/04 03:09:17;;;;;;;16.00;6.05;;;28.30;65.30;;;;;;5074576;28;20035;-76
2022/07/04 03:11:45;;;;;;;15.00;6.85;;;28.30;65.20;;;;;;5074318;28;20013;-75
2022/07/04 03:14:11;;;;;;;14.85;6.93;;;28.30;65.80;;;;;;5074212;28;20493;-75
2022/07/04 03:16:37;;;;;;;17.50;6.45;;;28.20;65.60;;;;;;5074118;28;20025;-74
2022/07/04 03:19:03;;;;;;;12.48;6.47;;;28.30;65.00;;;;;;5074170;28;20024;-76
2022/07/04 03:21:29;;;;;;;17.05;6.47;;;28.30;64.70;;;;;;5073876;28;20044;-74
2022/07/04 03:23:57;;;;;;;12.02;6.28;;;28.30;64.50;;;;;;5074163;28;20020;-74
2022/07/04 03:26:31;;;;;;;13.07;6.65;;;28.30;64.40;;;;;;5072709;28;20029;-72
2022/07/04 03:28:58;;;;;;;13.43;6.28;;;28.30;64.10;;;;;;5074157;28;20051;-73
2022/07/04 03:31:26;;;;;;;14.57;6.25;;;28.20;64.20;;;;;;5073844;28;20469;-73
2022/07/04 03:33:52;;;;;;;12.55;6.30;;;28.20;64.30;;;;;;5073878;28;20123;-72
2022/07/04 03:36:20;;;;;;;18.60;7.15;;;28.20;64.20;;;;;;5073991;28;20028;-74
2022/07/04 03:38:46;;;;;;;11.98;6.72;;;28.20;64.60;;;;;;5073928;28;20110;-73
2022/07/04 03:41:12;;;;;;;16.52;6.30;;;28.20;64.50;;;;;;5075447;28;20067;-74
2022/07/04 03:43:38;;;;;;;14.55;6.72;;;28.20;64.50;;;;;;5073506;28;20020;-72
2022/07/04 03:46:04;;;;;;;14.77;6.25;;;28.20;64.30;;;;;;5072924;28;20104;-75
2022/07/04 03:48:30;;;;;;;20.65;7.03;;;28.20;64.10;;;;;;5072228;28;20054;-75
2022/07/04 03:50:56;;;;;;;13.38;6.78;;;28.30;63.80;;;;;;5073124;28;20133;-76
2022/07/04 03:53:22;;;;;;;22.05;7.07;;;28.30;63.40;;;;;;5073347;28;20032;-74
2022/07/04 03:55:48;;;;;;;12.70;6.63;;;28.30;62.80;;;;;;5073125;28;20056;-74
2022/07/04 03:58:14;;;;;;;16.33;7.47;;;28.30;61.90;;;;;;5073154;28;20398;-75
2022/07/04 04:00:41;;;;;;;16.73;7.22;;;28.30;61.50;;;;;;5073269;28;20044;-75
2022/07/04 04:05:53;;;;;;;12.68;6.65;;;28.30;60.30;;;;;;5073336;28;20036;-76
2022/07/04 04:08:19;;;;;;;12.00;6.40;;;28.30;59.90;;;;;;5073575;28;20036;-76
2022/07/04 04:10:45;;;;;;;22.65;7.13;;;28.30;59.00;;;;;;5072601;28;20032;-74
2022/07/04 04:13:11;;;;;;;16.02;7.43;;;28.30;58.50;;;;;;5072882;28;20488;-72
2022/07/04 04:15:37;;;;;;;17.85;7.72;;;28.30;58.30;;;;;;5073196;28;20020;-73
2022/07/04 04:18:02;;;;;;;19.58;7.22;;;28.40;58.30;;;;;;5073193;28;20100;-75
2022/07/04 04:20:32;;;;;;;17.80;7.97;;;28.40;58.20;;;;;;5073411;28;20060;-74
2022/07/04 04:22:59;;;;;;;15.25;7.78;;;28.40;57.30;;;;;;5074028;28;20025;-76
2022/07/04 04:25:24;;;;;;;16.08;8.10;;;28.40;57.20;;;;;;5088481;28;20012;-74
2022/07/04 04:27:50;;;;;;;18.88;8.15;;;28.40;57.60;;;;;;5080437;28;20019;-75
2022/07/04 04:30:16;;;;;;;12.68;7.53;;;28.30;56.90;;;;;;5074732;28;20032;-73
2022/07/04 04:32:41;;;;;;;21.10;7.70;;;28.30;56.60;;;;;;5073625;28;20035;-75
2022/07/04 04:35:08;;;;;;;20.90;8.10;;;28.40;56.60;;;;;;5072966;28;20050;-74
2022/07/04 04:37:33;;;;;;;14.20;7.07;;;28.40;55.90;;;;;;5071791;28;20036;-73
2022/07/04 04:39:59;;;;;;;19.00;7.15;;;28.50;55.80;;;;;;5073338;28;20037;-73
2022/07/04 04:42:25;;;;;;;16.35;8.30;;;28.50;56.10;;;;;;5073289;28;20024;-74
2022/07/04 04:44:51;;;;;;;17.77;8.57;;;28.50;55.80;;;;;;5073325;28;20016;-73
2022/07/04 04:47:17;;;;;;;17.10;7.18;;;28.60;55.50;;;;;;5073555;28;20400;-72
2022/07/04 04:49:43;;;;;;;18.38;9.50;;;28.50;55.50;;;;;;5072873;28;20029;-73
2022/07/04 04:52:09;;;;;;;17.13;7.65;;;28.60;55.70;;;;;;5073019;28;20045;-74
2022/07/04 04:54:35;;;;;;;19.55;7.45;;;28.60;56.60;;;;;;5072974;28;20032;-72
2022/07/04 04:57:01;;;;;;;16.77;7.03;;;28.60;57.30;;;;;;5075732;28;20061;-76
2022/07/04 04:59:29;;;;;;;13.98;7.20;;;28.60;57.90;;;;;;5075800;28;20036;-78
2022/07/04 05:01:55;;;;;;;16.80;7.05;;;28.60;58.20;;;;;;5076774;28;20142;-78
2022/07/04 05:04:21;;;;;;;14.93;7.30;;;28.70;58.50;;;;;;5077235;28;20071;-79
2022/07/04 05:06:47;;;;;;;17.92;7.50;;;28.70;58.50;;;;;;5077466;28;20401;-77
2022/07/04 05:09:12;;;;;;;15.13;6.90;;;28.70;58.70;;;;;;5078027;28;20024;-77
2022/07/04 05:11:38;;;;;;;15.52;6.70;;;28.70;58.70;;;;;;5078584;28;20484;-78
2022/07/04 05:14:05;;;;;;;19.23;7.03;;;28.70;58.50;;;;;;5077451;28;20024;-74
2022/07/04 05:16:31;;;;;;;15.85;6.53;;;28.90;58.40;;;;;;5076907;28;20024;-73
2022/07/04 05:18:56;;;;;;;19.42;7.15;;;29.00;58.30;;;;;;5076622;28;20531;-74
2022/07/04 05:21:22;;;;;;;19.20;6.68;;;29.10;58.10;;;;;;5076309;28;20028;-77
2022/07/04 05:23:48;;;;;;;23.52;6.70;;;29.30;58.10;;;;;;5076726;28;20025;-77
2022/07/04 05:26:14;;;;;;;22.50;6.15;;;29.40;57.70;;;;;;5076643;28;20397;-75
2022/07/04 05:28:39;;;;;;;17.25;6.78;;;29.80;57.30;;;;;;5076609;28;20100;-75
2022/07/04 05:31:05;;;;;;;21.45;7.75;;;30.10;56.50;;;;;;5076474;28;20067;-74
2022/07/04 05:33:31;;;;;;;16.02;7.28;;;30.40;55.90;;;;;;5075127;28;20047;-76
2022/07/04 05:35:57;;;;;;;16.13;6.55;;;30.80;55.40;;;;;;5076868;28;20466;-73
2022/07/04 05:38:23;;;;;;;17.83;6.45;;;31.00;54.70;;;;;;5077319;28;20084;-75
2022/07/04 05:40:49;;;;;;;14.85;6.20;;;31.20;54.40;;;;;;5077545;28;20129;-74
2022/07/04 05:43:15;;;;;;;14.18;6.05;;;31.50;54.10;;;;;;5076659;28;20020;-77
2022/07/04 05:45:41;;;;;;;14.48;6.10;;;31.80;53.40;;;;;;5076922;28;20171;-76
2022/07/04 05:48:06;;;;;;;14.40;7.00;;;32.00;53.20;;;;;;5076033;28;20020;-76
2022/07/04 05:50:32;;;;;;;13.43;6.55;;;32.30;53.10;;;;;;5076700;28;20047;-72
2022/07/04 05:52:59;;;;;;;12.68;6.18;;;32.50;52.60;;;;;;5076290;28;20111;-75
2022/07/04 05:55:25;;;;;;;21.02;7.20;;;32.80;51.30;;;;;;5076082;28;20082;-75
2022/07/04 05:57:51;;;;;;;28.50;7.60;;;32.90;51.80;;;;;;5076054;28;20024;-74
2022/07/04 06:00:17;;;;;;;16.10;6.97;;;33.10;51.50;;;;;;5075039;28;20037;-76
2022/07/04 06:02:42;;;;;;;19.00;7.10;;;33.30;51.20;;;;;;5075605;28;20420;-77
2022/07/04 06:05:08;;;;;;;15.98;7.13;;;33.40;50.90;;;;;;5077995;28;20359;-76
2022/07/04 06:07:34;;;;;;;17.45;6.97;;;33.60;50.50;;;;;;5075873;28;20024;-77
2022/07/04 06:10:00;;;;;;;18.15;6.72;;;33.70;50.40;;;;;;5076304;28;20021;-74
2022/07/04 06:12:26;;;;;;;16.92;7.85;;;33.70;50.20;;;;;;5076403;28;20028;-76
2022/07/04 06:14:52;;;;;;;15.77;7.10;;;33.80;49.50;;;;;;5076306;28;20404;-74
2022/07/04 06:17:17;;;;;;;17.25;6.70;;;33.70;48.80;;;;;;5075435;28;20025;-75
2022/07/04 06:19:43;;;;;;;14.52;6.45;;;33.80;48.70;;;;;;5076346;28;20100;-77
2022/07/04 06:22:09;;;;;;;14.80;6.38;;;33.80;48.80;;;;;;5075320;28;20028;-76
2022/07/04 06:24:34;;;;;;;17.77;5.88;;;33.90;48.40;;;;;;5075308;28;20034;-76
2022/07/04 06:27:01;;;;;;;31.80;6.53;;;33.90;48.30;;;;;;5073980;28;20036;-75
2022/07/04 06:29:26;;;;;;;11.73;6.03;;;33.90;48.60;;;;;;5075265;28;20074;-73
2022/07/04 06:31:53;;;;;;;18.48;6.30;;;33.90;48.50;;;;;;5074783;28;20403;-75
2022/07/04 06:37:04;;;;;;;14.38;5.72;;;34.00;47.80;;;;;;5075411;28;20039;-75
2022/07/04 06:39:30;;;;;;;16.52;5.97;;;34.30;47.40;;;;;;5073512;28;20021;-74
2022/07/04 06:41:56;;;;;;;18.70;6.85;;;34.40;47.00;;;;;;5075164;28;20032;-75
2022/07/04 06:44:22;;;;;;;15.50;6.78;;;34.60;46.50;;;;;;5074839;28;20418;-74
2022/07/04 06:46:48;;;;;;;16.13;6.85;;;34.70;46.20;;;;;;5075284;28;20036;-74
2022/07/04 06:49:14;;;;;;;13.95;6.10;;;34.80;45.70;;;;;;5074870;28;20031;-76
2022/07/04 06:51:40;;;;;;;15.13;6.00;;;35.00;45.20;;;;;;5074510;28;20135;-75
2022/07/04 06:54:06;;;;;;;16.42;6.40;;;35.20;44.80;;;;;;5074367;28;20103;-74
2022/07/04 06:56:31;;;;;;;12.68;6.22;;;35.30;44.70;;;;;;5074624;28;20032;-74
2022/07/04 06:58:57;;;;;;;21.02;6.30;;;35.20;44.50;;;;;;5072972;28;20477;-75
2022/07/04 07:01:23;;;;;;;16.45;6.25;;;35.20;44.60;;;;;;5074227;28;20036;-74
2022/07/04 07:03:49;;;;;;;24.38;6.53;;;35.20;44.60;;;;;;5074298;28;20096;-74
2022/07/04 07:06:15;;;;;;;13.88;5.97;;;35.30;44.60;;;;;;5074113;28;20580;-75
2022/07/04 07:08:41;;;;;;;16.52;5.88;;;35.40;44.70;;;;;;5074495;28;20039;-74
2022/07/04 07:11:12;;;;;;;13.02;5.25;;;35.60;44.70;;;;;;5074140;28;20021;-75
2022/07/04 07:13:50;;;;;;;15.77;5.47;;;35.70;44.60;;;;;;5074366;28;20125;-74
2022/07/04 07:16:16;;;;;;;14.80;4.88;;;35.90;44.00;;;;;;5074122;28;20025;-74
2022/07/04 07:18:43;;;;;;;12.52;4.78;;;36.00;43.90;;;;;;5073985;28;20028;-76
2022/07/04 07:21:09;;;;;;;18.55;5.50;;;36.10;43.50;;;;;;5072753;28;20343;-74
2022/07/04 07:23:38;;;;;;;23.35;6.18;;;36.10;43.50;;;;;;5074102;28;20020;-76
2022/07/04 07:26:05;;;;;;;13.95;4.82;;;36.10;43.30;;;;;;5073873;28;20025;-79
2022/07/04 07:28:31;;;;;;;16.38;5.07;;;36.10;43.40;;;;;;5074096;28;20523;-76
2022/07/04 07:30:57;;;;;;;18.38;4.85;;;36.20;43.30;;;;;;5073643;28;20036;-79
2022/07/04 07:33:23;;;;;;;14.68;4.75;;;36.20;43.40;;;;;;5073895;28;20070;-78
2022/07/04 07:35:49;;;;;;;15.02;4.30;;;36.20;43.40;;;;;;5075144;28;20064;-78
2022/07/04 07:38:15;;;;;;;13.80;4.35;;;36.20;43.10;;;;;;5076507;28;20021;-79
2022/07/04 07:40:41;;;;;;;14.13;4.43;;;36.20;43.10;;;;;;5073455;28;20032;-76
2022/07/04 07:43:08;;;;;;;12.15;4.45;;;36.20;43.10;;;;;;5072358;28;20108;-78
2022/07/04 07:45:33;;;;;;;11.93;4.70;;;36.30;43.00;;;;;;5073664;28;20032;-79
2022/07/04 07:47:59;;;;;;;16.30;5.10;;;36.30;43.20;;;;;;5073565;28;20057;-78
2022/07/04 07:50:25;;;;;;;16.23;4.50;;;36.30;43.20;;;;;;5073385;28;20074;-77
2022/07/04 07:52:51;;;;;;;15.40;4.35;;;36.30;43.20;;;;;;5073493;28;20044;-76
2022/07/04 07:55:16;;;;;;;13.38;5.00;;;36.30;43.40;;;;;;5073150;28;20025;-78
2022/07/04 07:57:42;;;;;;;17.73;4.90;;;36.30;43.30;;;;;;5073244;28;20040;-74
2022/07/04 08:00:08;;;;;;;11.00;4.40;;;36.20;43.50;;;;;;5073172;28;20036;-77
2022/07/04 08:05:18;;;;;;;17.52;4.53;;;36.30;43.90;;;;;;5073699;28;20093;-76
2022/07/04 08:07:44;;;;;;;13.32;4.63;;;36.30;43.20;;;;;;5073223;28;20099;-76
2022/07/04 08:10:11;;;;;;;14.05;4.53;;;36.30;42.80;;;;;;5072926;28;20059;-78
2022/07/04 08:12:37;;;;;;;14.57;4.50;;;36.20;44.00;;;;;;5073394;28;20462;-78
2022/07/04 08:15:03;;;;;;;13.57;4.18;;;36.10;43.50;;;;;;5073614;28;20024;-78
2022/07/04 08:17:29;;;;;;;15.43;5.03;;;36.00;43.90;;;;;;5073611;28;20056;-77
2022/07/04 08:19:55;;;;;;;12.38;5.07;;;35.90;44.00;;;;;;5073509;28;20117;-75
2022/07/04 08:22:20;;;;;;;13.82;4.32;;;35.80;44.00;;;;;;5075343;28;20027;-76
2022/07/04 08:24:47;;;;;;;12.93;4.35;;;35.70;44.20;;;;;;5075370;28;20070;-74
2022/07/04 08:27:13;;;;;;;11.75;4.88;;;35.70;44.40;;;;;;5073270;28;20028;-75
2022/07/04 08:29:39;;;;;;;14.43;4.45;;;35.70;44.40;;;;;;5071417;28;20046;-77
2022/07/04 08:32:07;;;;;;;16.55;4.82;;;35.50;44.50;;;;;;5072808;28;20119;-78
2022/07/04 08:34:34;;;;;;;13.25;4.82;;;35.50;44.60;;;;;;5072989;28;20094;-76
2022/07/04 08:37:00;;;;;;;15.68;4.35;;;35.40;44.30;;;;;;5073144;28;20032;-76
2022/07/04 08:39:26;;;;;;;15.23;4.80;;;35.40;44.40;;;;;;5074381;28;20086;-75
2022/07/04 08:41:59;;;;;;;11.60;4.13;;;35.30;44.60;;;;;;5074309;28;20052;-76
2022/07/04 08:44:27;;;;;;;19.38;4.75;;;35.20;44.50;;;;;;5072434;28;20033;-76
2022/07/04 08:46:54;;;;;;;13.30;4.78;;;35.20;44.30;;;;;;5072882;28;20027;-76
2022/07/04 08:49:30;;;;;;;21.23;4.88;;;35.10;44.40;;;;;;5072646;28;20017;-76
2022/07/04 08:52:05;;;;;;;17.42;5.32;;;35.00;44.40;;;;;;5072760;28;20074;-75
2022/07/04 09:00:05;;;;;;;16.15;4.40;;;34.90;44.50;;;;;;5072826;28;20098;-76
2022/07/04 09:02:32;;;;;;;16.17;4.50;;;35.00;44.80;;;;;;5071780;28;20387;-74
2022/07/04 09:04:59;;;;;;;17.58;4.70;;;34.90;44.20;;;;;;5072806;28;20063;-75
2022/07/04 09:07:28;;;;;;;20.58;4.38;;;34.90;44.00;;;;;;5072671;28;20389;-74
2022/07/04 09:09:54;;;;;;;20.35;4.43;;;34.90;43.70;;;;;;5072405;28;20020;-76
2022/07/04 09:12:20;;;;;;;20.92;4.68;;;34.90;43.20;;;;;;5072389;28;20477;-76
2022/07/04 09:14:46;;;;;;;13.30;4.38;;;35.00;43.30;;;;;;5072600;28;20032;-76
2022/07/04 09:17:12;;;;;;;12.13;4.13;;;35.00;43.50;;;;;;5072431;28;20037;-75
2022/07/04 09:19:38;;;;;;;10.93;4.05;;;35.00;42.50;;;;;;5072008;28;20035;-75
2022/07/04 09:22:10;;;;;;;13.60;4.80;;;35.00;42.10;;;;;;5070917;28;20115;-75
2022/07/04 09:24:53;;;;;;;12.32;4.55;;;35.00;41.70;;;;;;5072142;28;20063;-75
2022/07/04 09:27:41;;;;;;;11.70;3.70;;;35.00;41.40;;;;;;5072313;28;20025;-76
2022/07/04 09:30:08;;;;;;;13.90;4.30;;;35.00;41.60;;;;;;5072131;28;20044;-75
2022/07/04 09:32:38;;;;;;;11.60;3.90;;;34.90;41.80;;;;;;5072010;28;20027;-76
2022/07/04 09:35:06;;;;;;;17.50;4.55;;;35.00;41.90;;;;;;5072203;28;20021;-75
2022/07/04 09:37:38;;;;;;;14.93;4.55;;;35.00;41.70;;;;;;5072019;28;20109;-78
2022/07/04 09:40:05;;;;;;;17.23;4.65;;;35.00;41.30;;;;;;5071995;28;20024;-79
2022/07/04 09:42:39;;;;;;;12.23;4.00;;;35.10;41.20;;;;;;5071963;28;20029;-78
2022/07/04 09:45:06;;;;;;;11.57;4.65;;;35.10;41.00;;;;;;5075603;28;20025;-77
2022/07/04 09:47:32;;;;;;;15.68;4.03;;;35.10;41.20;;;;;;5075561;28;20024;-78
2022/07/04 09:50:19;;;;;;;11.52;3.85;;;35.10;41.00;;;;;;5075473;28;20561;-77
2022/07/04 09:52:49;;;;;;;12.02;4.85;;;35.10;40.80;;;;;;5075757;28;20043;-79
2022/07/04 09:55:30;;;;;;;10.23;4.32;;;35.10;41.10;;;;;;5075613;28;20035;-77
2022/07/04 09:58:00;;;;;;;9.90;3.92;;;35.10;40.90;;;;;;5075829;28;20028;-79
2022/07/04 10:00:32;;;;;;;12.32;4.30;;;35.10;40.00;;;;;;5075476;28;20029;-80
2022/07/04 10:03:15;;;;;;;11.77;4.22;;;35.10;40.60;;;;;;5075522;28;20112;-77
2022/07/04 10:05:41;;;;;;;14.88;4.68;;;35.20;40.10;;;;;;5075387;28;20033;-75
2022/07/04 10:08:07;;;;;;;16.75;4.45;;;35.20;40.00;;;;;;5074130;28;20103;-74
2022/07/04 10:10:35;;;;;;;13.38;4.20;;;35.20;40.00;;;;;;5074783;28;20103;-74
2022/07/04 10:13:01;;;;;;;22.58;5.57;;;35.20;40.20;;;;;;5073827;28;20024;-76
2022/07/04 10:15:27;;;;;;;10.95;3.83;;;35.20;40.20;;;;;;5075458;28;20023;-75
2022/07/04 10:17:53;;;;;;;15.02;4.50;;;35.30;39.90;;;;;;5075426;28;20025;-79
2022/07/04 10:20:19;;;;;;;10.98;4.60;;;35.40;40.00;;;;;;5075408;28;20032;-75
2022/07/04 10:22:45;;;;;;;11.40;3.63;;;35.40;39.60;;;;;;5075082;28;20364;-77
2022/07/04 10:25:11;;;;;;;10.63;3.88;;;35.50;39.80;;;;;;5074927;28;20028;-75
2022/07/04 10:27:38;;;;;;;13.15;3.72;;;35.50;39.50;;;;;;5075182;28;20063;-76
2022/07/04 10:30:07;;;;;;;12.32;4.80;;;35.60;39.20;;;;;;5075031;28;20025;-77
2022/07/04 10:32:34;;;;;;;14.15;4.53;;;35.70;39.50;;;;;;5075122;28;20122;-76
2022/07/04 10:35:00;;;;;;;13.88;4.68;;;35.70;39.40;;;;;;5075043;28;20497;-76
2022/07/04 10:38:02;;;;;;;11.48;3.90;;;35.70;39.40;;;;;;5074665;28;20024;-74
2022/07/04 10:40:48;;;;;;;12.68;4.68;;;35.80;39.50;;;;;;5074428;28;20040;-76
2022/07/04 10:43:41;;;;;;;13.45;4.13;;;35.90;39.50;;;;;;5073184;28;20078;-76
2022/07/04 10:46:15;;;;;;;16.45;4.50;;;36.00;39.40;;;;;;5074256;28;20036;-76
2022/07/04 10:48:56;;;;;;;14.02;4.57;;;36.10;39.50;;;;;;5074734;28;20032;-78
2022/07/04 10:51:41;;;;;;;17.70;4.90;;;36.10;39.20;;;;;;5074429;28;20048;-79
2022/07/04 10:54:13;;;;;;;13.38;4.50;;;36.20;39.00;;;;;;5074268;28;20108;-76
2022/07/04 10:56:46;;;;;;;13.15;4.80;;;36.20;39.00;;;;;;5074785;28;20381;-78
2022/07/04 10:59:19;;;;;;;16.83;4.88;;;36.20;38.80;;;;;;5073003;28;20047;-78
2022/07/04 11:02:01;;;;;;;91.32;12.48;;;36.30;39.10;;;;;;5074243;28;20040;-78
2022/07/04 11:05:06;;;;;;;47.58;8.68;;;36.30;38.80;;;;;;5074429;28;20036;-77
2022/07/04 11:07:40;;;;;;;20.48;4.95;;;36.40;38.90;;;;;;5074508;28;20029;-76
2022/07/04 11:10:21;;;;;;;18.38;5.20;;;36.40;38.50;;;;;;5075174;28;20032;-78
2022/07/04 11:12:53;;;;;;;19.40;5.07;;;36.50;38.60;;;;;;5075693;28;20370;-78
2022/07/04 11:15:25;;;;;;;20.48;5.13;;;36.50;38.90;;;;;;5076033;28;20134;-77
2022/07/04 11:17:53;;;;;;;9.90;4.22;;;36.50;39.20;;;;;;5075889;28;20126;-75
2022/07/04 11:20:20;;;;;;;13.40;4.78;;;36.60;39.60;;;;;;5074784;28;20046;-75
2022/07/04 11:22:46;;;;;;;19.35;4.57;;;36.60;39.40;;;;;;5073992;28;20024;-74
2022/07/04 11:25:12;;;;;;;23.95;5.05;;;36.70;39.50;;;;;;5074064;28;20020;-76
2022/07/04 11:27:42;;;;;;;12.75;5.32;;;36.80;39.50;;;;;;5074731;28;20028;-76
2022/07/04 11:30:09;;;;;;;12.35;5.35;;;36.80;39.70;;;;;;5072488;28;20162;-76
2022/07/04 11:32:36;;;;;;;9.75;4.60;;;36.90;39.60;;;;;;5072660;28;20142;-75
2022/07/04 11:35:04;;;;;;;17.00;4.28;;;36.90;39.60;;;;;;5073951;28;20073;-75
2022/07/04 11:37:30;;;;;;;12.00;3.67;;;36.90;40.00;;;;;;5073763;28;20039;-75
2022/07/04 11:45:02;;;;;;;14.77;4.10;;;37.00;40.20;;;;;;5073567;28;20138;-74
2022/07/04 11:45:50;;;;;;;12.07;4.10;;;37.00;40.60;;;;;;5072838;28;20043;-75
2022/07/04 11:48:23;;;;;;;16.88;4.07;;;37.10;40.80;;;;;;5073841;28;20016;-77
2022/07/04 11:50:50;;;;;;;10.95;4.07;;;37.10;40.70;;;;;;5073470;28;20129;-77
2022/07/04 11:53:17;;;;;;;12.05;3.38;;;37.10;40.80;;;;;;5072236;28;20059;-80
2022/07/04 11:55:56;;;;;;;14.55;3.72;;;37.20;40.80;;;;;;5073620;28;20131;-78
2022/07/04 11:58:23;;;;;;;11.15;3.70;;;37.30;40.90;;;;;;5073782;28;20017;-78
2022/07/04 12:00:49;;;;;;;15.80;4.13;;;37.20;40.70;;;;;;5073502;28;20159;-77
2022/07/04 12:03:15;;;;;;;11.40;3.47;;;37.20;40.90;;;;;;5074064;28;20457;-78
2022/07/04 12:05:43;;;;;;;9.80;3.40;;;37.10;40.80;;;;;;5073715;28;20103;-78
2022/07/04 12:08:09;;;;;;;11.23;3.63;;;37.10;40.90;;;;;;5072147;28;20501;-80
2022/07/04 12:10:36;;;;;;;13.70;3.80;;;37.10;41.10;;;;;;5072065;28;20024;-79
2022/07/04 12:13:09;;;;;;;9.65;3.53;;;37.20;41.10;;;;;;5073593;28;20020;-78
2022/07/04 12:15:40;;;;;;;13.23;4.03;;;37.30;40.80;;;;;;5073130;28;20024;-76
2022/07/04 12:18:19;;;;;;;12.48;4.30;;;37.30;40.50;;;;;;5071921;28;20032;-76
2022/07/04 12:20:47;;;;;;;10.07;3.40;;;37.30;40.20;;;;;;5073452;28;20432;-76
2022/07/04 12:23:13;;;;;;;8.07;3.50;;;37.30;39.90;;;;;;5073470;28;20036;-76
2022/07/04 12:25:39;;;;;;;10.73;3.67;;;37.40;39.90;;;;;;5073198;28;20496;-76
2022/07/04 12:28:10;;;;;;;12.98;4.15;;;37.40;39.10;;;;;;5073578;28;20021;-76
2022/07/04 12:30:48;;;;;;;12.68;3.70;;;37.40;38.40;;;;;;5073639;28;20478;-75
2022/07/04 12:33:17;;;;;;;14.32;3.95;;;37.30;38.00;;;;;;5073532;28;20016;-74
2022/07/04 12:35:50;;;;;;;16.30;6.32;;;37.40;37.50;;;;;;5073888;28;20035;-75
2022/07/04 12:38:21;;;;;;;;;;;37.40;37.20;;;;;;5075019;28;20021;-76
2022/07/04 12:41:12;;;;;;;14.40;3.80;;;37.50;36.70;;;;;;5074635;28;19916;-77
2022/07/04 12:43:43;;;;;;;10.90;3.95;;;37.50;36.80;;;;;;5074825;28;20017;-76
2022/07/04 12:46:13;;;;;;;10.00;3.40;;;37.60;36.80;;;;;;5073104;28;20100;-75
2022/07/04 12:48:39;;;;;;;13.15;3.47;;;37.60;37.00;;;;;;5072823;28;20546;-75
2022/07/04 12:51:14;;;;;;;9.57;3.60;;;37.60;37.20;;;;;;5072558;28;20049;-76
2022/07/04 12:53:41;;;;;;;7.88;3.08;;;37.60;37.00;;;;;;5073147;28;20055;-75
2022/07/04 12:56:08;;;;;;;12.32;3.58;;;37.60;36.90;;;;;;5072977;28;20040;-76
2022/07/04 12:58:35;;;;;;;9.32;4.18;;;37.70;36.60;;;;;;5073473;28;20425;-76
2022/07/04 13:01:01;;;;;;;13.88;4.07;;;37.70;36.60;;;;;;5072822;28;20037;-74